Time;durP1;ratioP1;P1;durP2;ratioP2;P2;SDS_P1;SDS_P2;PMS_P1;PMS_P2;Temp;Humidity;BMP_temperature;BMP_pressure;BME280_temperature;BME280_humidity;BME280_pressure;Samples;Min_cycle;Max_cycle;Signal;HPM_P1;HPM_P2
2023/01/29 00:01:37;;;;;;;22.27;19.02;;;3.00;99.90;;;;;;5048530;28;20093;-75
2023/01/29 00:04:03;;;;;;;21.85;19.48;;;3.00;99.90;;;;;;5049247;28;20044;-75
2023/01/29 00:06:29;;;;;;;21.95;18.88;;;3.00;99.90;;;;;;5033357;28;20037;-75
2023/01/29 00:08:55;;;;;;;21.38;17.92;;;3.00;99.90;;;;;;5049984;28;20514;-75
2023/01/29 00:11:22;;;;;;;21.20;19.00;;;3.00;99.90;;;;;;5048088;28;20037;-75
2023/01/29 00:13:48;;;;;;;21.42;19.17;;;3.00;99.90;;;;;;5032865;28;20134;-75
2023/01/29 00:16:14;;;;;;;21.02;18.80;;;3.00;99.90;;;;;;5049037;28;20497;-75
2023/01/29 00:18:40;;;;;;;23.15;19.50;;;3.00;99.90;;;;;;5049787;28;20045;-75
2023/01/29 00:21:14;;;;;;;21.55;18.98;;;3.00;99.90;;;;;;5032925;28;20190;-75
2023/01/29 00:23:40;;;;;;;21.80;19.25;;;3.00;99.90;;;;;;5047896;28;20052;-75
2023/01/29 00:26:06;;;;;;;22.17;19.38;;;3.00;99.90;;;;;;5049672;28;20045;-75
2023/01/29 00:28:32;;;;;;;23.20;18.70;;;3.00;99.90;;;;;;5049700;28;20116;-75
2023/01/29 00:30:57;;;;;;;22.58;18.95;;;3.00;99.90;;;;;;5033502;28;20126;-75
2023/01/29 00:33:23;;;;;;;23.00;18.70;;;3.00;99.90;;;;;;5047678;28;20163;-75
2023/01/29 00:35:49;;;;;;;22.42;18.95;;;3.10;99.90;;;;;;5033159;28;20056;-75
2023/01/29 00:38:14;;;;;;;21.50;18.85;;;3.00;99.90;;;;;;5049908;28;20143;-75
2023/01/29 00:46:09;;;;;;;21.23;18.83;;;3.10;99.90;;;;;;5052570;28;20107;-75
2023/01/29 00:48:35;;;;;;;23.00;19.45;;;3.10;99.90;;;;;;5053354;28;20072;-75
2023/01/29 00:51:01;;;;;;;22.40;19.27;;;3.10;99.90;;;;;;5035139;28;20044;-75
2023/01/29 00:53:28;;;;;;;21.70;19.40;;;3.10;99.90;;;;;;5030214;28;20490;-75
2023/01/29 00:55:53;;;;;;;24.17;19.52;;;3.10;99.90;;;;;;5044158;28;20041;-75
2023/01/29 00:58:26;;;;;;;22.55;20.13;;;3.10;99.90;;;;;;5016714;28;20096;-75
2023/01/29 01:00:53;;;;;;;22.67;19.63;;;3.10;99.90;;;;;;5033376;28;20511;-75
2023/01/29 01:03:18;;;;;;;21.80;19.40;;;3.10;99.90;;;;;;5052032;28;20037;-75
2023/01/29 01:05:44;;;;;;;22.17;19.05;;;3.10;99.90;;;;;;5052798;28;20049;-75
2023/01/29 01:11:03;;;;;;;21.52;19.17;;;3.10;99.90;;;;;;5052343;28;20506;-75
2023/01/29 01:13:30;;;;;;;22.70;20.30;;;3.10;99.90;;;;;;5051561;28;20029;-75
2023/01/29 01:15:56;;;;;;;21.45;19.20;;;3.10;99.90;;;;;;5051935;28;20044;-75
2023/01/29 01:18:22;;;;;;;21.02;17.65;;;3.10;99.90;;;;;;5052838;28;20045;-75
2023/01/29 01:20:50;;;;;;;22.25;19.30;;;3.10;99.90;;;;;;5052817;28;20041;-75
2023/01/29 01:23:19;;;;;;;21.25;19.02;;;3.10;99.90;;;;;;5035284;28;20067;-75
2023/01/29 01:25:45;;;;;;;21.02;18.80;;;3.10;99.90;;;;;;5035766;28;20041;-75
2023/01/29 01:28:11;;;;;;;21.83;19.38;;;3.10;99.90;;;;;;5052716;28;20110;-75
2023/01/29 01:30:37;;;;;;;23.80;19.73;;;3.20;99.90;;;;;;5052594;28;20041;-75
2023/01/29 01:33:02;;;;;;;22.02;18.65;;;3.20;99.90;;;;;;5050673;28;20436;-75
2023/01/29 01:35:28;;;;;;;21.90;19.52;;;3.10;99.90;;;;;;5035670;28;20476;-75
2023/01/29 01:37:54;;;;;;;22.90;19.98;;;3.20;99.90;;;;;;5051365;28;20041;-75
2023/01/29 01:40:21;;;;;;;21.30;18.55;;;3.20;99.90;;;;;;5035803;28;20407;-75
2023/01/29 01:42:51;;;;;;;21.33;19.02;;;3.20;99.90;;;;;;5034066;28;20037;-75
2023/01/29 01:45:28;;;;;;;22.38;19.95;;;3.20;99.90;;;;;;5043998;28;20490;-75
2023/01/29 01:48:06;;;;;;;22.05;19.75;;;3.20;99.90;;;;;;5051731;28;20076;-75
2023/01/29 01:50:41;;;;;;;21.85;18.52;;;3.20;99.90;;;;;;5049482;28;20040;-75
2023/01/29 01:53:10;;;;;;;21.08;18.88;;;3.20;99.90;;;;;;5050940;28;20087;-75
2023/01/29 01:55:44;;;;;;;23.08;19.88;;;3.20;99.90;;;;;;5051790;28;20410;-75
2023/01/29 01:58:15;;;;;;;22.05;19.63;;;3.20;99.90;;;;;;5052105;28;20124;-75
2023/01/29 02:00:41;;;;;;;23.20;19.48;;;3.20;99.90;;;;;;5050647;28;20037;-75
2023/01/29 02:11:38;;;;;;;22.13;19.38;;;3.20;99.90;;;;;;5044943;28;20048;-75
2023/01/29 02:14:04;;;;;;;23.25;20.85;;;3.20;99.90;;;;;;5051011;28;20037;-75
2023/01/29 02:16:32;;;;;;;23.08;19.92;;;3.20;99.90;;;;;;5034590;28;20037;-75
2023/01/29 02:18:58;;;;;;;23.38;20.75;;;3.20;99.90;;;;;;5051350;28;20045;-75
2023/01/29 02:21:48;;;;;;;23.98;20.60;;;3.30;99.90;;;;;;5049760;28;20098;-75
2023/01/29 02:24:52;;;;;;;23.30;20.73;;;3.30;99.90;;;;;;5050759;28;20087;-75
2023/01/29 02:27:25;;;;;;;24.35;21.85;;;3.30;99.90;;;;;;4998276;28;20435;-75
2023/01/29 02:29:57;;;;;;;22.95;20.58;;;3.30;99.90;;;;;;5031917;28;20037;-75
2023/01/29 02:32:35;;;;;;;24.38;21.92;;;3.30;99.90;;;;;;5031876;28;20044;-75
2023/01/29 02:35:30;;;;;;;24.17;21.67;;;3.30;99.90;;;;;;5051642;28;20075;-75
2023/01/29 02:38:11;;;;;;;24.85;22.15;;;3.30;99.90;;;;;;5051126;28;20045;-75
2023/01/29 02:40:53;;;;;;;24.30;21.70;;;3.30;99.90;;;;;;5032484;28;20041;-75
2023/01/29 02:43:26;;;;;;;25.00;22.08;;;3.30;99.90;;;;;;5048104;28;20480;-75
2023/01/29 02:46:14;;;;;;;24.15;21.10;;;3.30;99.90;;;;;;5050334;28;20045;-75
2023/01/29 02:48:56;;;;;;;26.23;21.73;;;3.30;99.90;;;;;;5050875;28;20086;-75
2023/01/29 02:51:38;;;;;;;25.08;22.38;;;3.30;99.90;;;;;;5049854;28;20036;-75
2023/01/29 02:54:27;;;;;;;26.00;23.20;;;3.30;99.90;;;;;;5050380;28;20048;-75
2023/01/29 02:56:57;;;;;;;26.02;22.35;;;3.30;99.90;;;;;;5042024;28;20123;-75
2023/01/29 02:59:35;;;;;;;24.90;22.23;;;3.30;99.90;;;;;;5051219;28;20515;-75
2023/01/29 03:02:10;;;;;;;25.83;23.02;;;3.40;99.90;;;;;;5031930;28;20126;-75
2023/01/29 03:04:44;;;;;;;25.98;23.20;;;3.40;99.90;;;;;;5046276;28;20079;-75
2023/01/29 03:07:40;;;;;;;28.17;24.20;;;3.40;99.90;;;;;;5041392;28;20402;-75
2023/01/29 03:10:22;;;;;;;27.23;22.88;;;3.30;99.90;;;;;;5051021;28;20044;-75
2023/01/29 03:13:04;;;;;;;26.92;24.05;;;3.40;99.90;;;;;;5046988;28;20044;-75
2023/01/29 03:15:53;;;;;;;26.25;23.33;;;3.40;99.90;;;;;;5020982;28;20044;-75
2023/01/29 03:18:26;;;;;;;25.75;23.05;;;3.30;99.90;;;;;;5033464;28;20033;-75
2023/01/29 03:20:57;;;;;;;;;;;3.40;99.90;;;;;;5034051;28;20393;-75
2023/01/29 03:32:04;;;;;;;27.20;24.38;;;3.40;99.90;;;;;;5047691;28;20051;-75
2023/01/29 03:34:33;;;;;;;29.25;26.08;;;3.40;99.90;;;;;;5044411;28;20069;-75
2023/01/29 03:37:18;;;;;;;28.88;25.77;;;3.40;99.90;;;;;;5047946;28;20048;-75
2023/01/29 03:39:43;;;;;;;27.85;24.90;;;3.40;99.90;;;;;;5033816;28;20037;-75
2023/01/29 03:42:28;;;;;;;29.38;26.27;;;3.40;99.90;;;;;;5032117;28;20430;-75
2023/01/29 03:45:13;;;;;;;30.15;27.05;;;3.40;99.90;;;;;;5038246;28;20499;-76
2023/01/29 03:47:53;;;;;;;28.70;25.60;;;3.40;99.90;;;;;;5032562;28;20076;-75
2023/01/29 03:50:24;;;;;;;28.77;25.77;;;3.40;99.90;;;;;;5030447;28;20041;-75
2023/01/29 03:53:03;;;;;;;29.77;26.60;;;3.40;99.90;;;;;;5049069;28;20041;-75
2023/01/29 03:55:54;;;;;;;29.80;26.60;;;3.40;99.90;;;;;;5040911;28;20042;-75
2023/01/29 03:58:46;;;;;;;29.90;26.70;;;3.40;99.90;;;;;;5042456;28;20099;-75
2023/01/29 04:01:25;;;;;;;29.60;26.52;;;3.40;99.90;;;;;;5028110;28;20088;-75
2023/01/29 04:04:17;;;;;;;29.42;26.35;;;3.50;99.90;;;;;;5062591;28;20041;-75
2023/01/29 04:06:46;;;;;;;29.50;26.43;;;3.50;99.90;;;;;;5036814;28;20053;-75
2023/01/29 04:09:23;;;;;;;30.77;27.58;;;3.50;99.90;;;;;;5049865;28;20033;-75
2023/01/29 04:11:56;;;;;;;29.35;26.25;;;3.50;99.90;;;;;;5049178;28;20041;-75
2023/01/29 04:14:22;;;;;;;30.70;27.60;;;3.50;99.90;;;;;;5041664;28;20059;-75
2023/01/29 04:16:52;;;;;;;28.92;25.83;;;3.50;99.90;;;;;;5072837;22;20131;-76
2023/01/29 04:19:17;;;;;;;29.73;26.73;;;3.50;99.90;;;;;;5025014;28;20063;-75
2023/01/29 04:21:45;;;;;;;29.85;26.65;;;3.50;99.90;;;;;;5043543;28;20041;-75
2023/01/29 04:24:12;;;;;;;30.27;27.08;;;3.50;99.90;;;;;;5039610;28;20458;-75
2023/01/29 04:27:04;;;;;;;30.00;26.83;;;3.50;99.90;;;;;;5048874;28;20051;-75
2023/01/29 04:29:47;;;;;;;30.80;27.55;;;3.50;99.90;;;;;;5057562;28;20040;-75
2023/01/29 04:32:25;;;;;;;29.88;26.58;;;3.50;99.90;;;;;;5044195;28;20079;-75
2023/01/29 04:35:23;;;;;;;30.10;27.00;;;3.50;99.90;;;;;;5038983;28;20037;-75
2023/01/29 04:37:54;;;;;;;31.33;28.15;;;3.50;99.90;;;;;;5015663;28;20052;-75
2023/01/29 04:40:31;;;;;;;30.83;27.42;;;3.50;99.90;;;;;;5020457;28;20036;-75
2023/01/29 04:43:08;;;;;;;30.45;27.17;;;3.50;99.90;;;;;;5035778;28;20083;-75
2023/01/29 04:45:49;;;;;;;31.55;28.17;;;3.50;99.90;;;;;;5035300;28;20036;-75
2023/01/29 04:48:21;;;;;;;31.27;28.08;;;3.50;99.90;;;;;;5052589;28;20040;-75
2023/01/29 04:51:22;;;;;;;31.25;28.17;;;3.50;99.90;;;;;;5055874;28;20463;-75
2023/01/29 04:54:06;;;;;;;31.60;28.50;;;3.50;99.90;;;;;;5023693;28;20380;-75
2023/01/29 04:56:57;;;;;;;31.90;28.50;;;3.50;99.90;;;;;;5042525;28;20059;-75
2023/01/29 04:59:30;;;;;;;32.20;28.80;;;3.50;99.90;;;;;;5056697;28;20482;-75
2023/01/29 05:01:59;;;;;;;31.83;28.52;;;3.50;99.90;;;;;;5042488;28;20120;-75
2023/01/29 05:04:26;;;;;;;32.38;28.98;;;3.40;99.90;;;;;;5039124;28;20067;-75
2023/01/29 05:06:52;;;;;;;32.28;28.92;;;3.50;99.90;;;;;;5052064;28;20048;-75
2023/01/29 05:09:19;;;;;;;32.67;29.15;;;3.40;99.90;;;;;;5056578;28;20386;-75
2023/01/29 05:11:47;;;;;;;31.63;28.35;;;3.40;99.90;;;;;;5045591;28;20171;-75
2023/01/29 05:14:16;;;;;;;32.55;29.17;;;3.40;99.90;;;;;;5034196;28;20044;-75
2023/01/29 05:17:08;;;;;;;33.47;30.00;;;3.40;99.90;;;;;;5055941;28;20097;-75
2023/01/29 05:19:33;;;;;;;33.65;30.15;;;3.50;99.90;;;;;;5056316;28;20410;-75
2023/01/29 05:21:59;;;;;;;31.90;28.50;;;3.40;99.90;;;;;;5035779;28;20047;-75
2023/01/29 05:24:26;;;;;;;31.85;28.55;;;3.40;99.90;;;;;;5037402;28;20123;-75
2023/01/29 05:29:45;;;;;;;31.25;28.05;;;3.40;99.90;;;;;;5056105;28;20059;-75
2023/01/29 05:32:10;;;;;;;31.88;28.20;;;3.40;99.90;;;;;;5041984;28;20101;-75
2023/01/29 05:34:36;;;;;;;32.30;29.00;;;3.40;99.90;;;;;;5039741;28;20032;-75
2023/01/29 05:37:02;;;;;;;31.65;28.42;;;3.40;99.90;;;;;;5040287;28;20048;-75
2023/01/29 05:39:28;;;;;;;31.05;27.75;;;3.40;99.90;;;;;;5055697;28;20044;-75
2023/01/29 05:41:54;;;;;;;30.58;27.48;;;3.40;99.90;;;;;;5037539;28;20036;-75
2023/01/29 05:44:19;;;;;;;31.80;28.50;;;3.40;99.90;;;;;;5037508;28;20037;-75
2023/01/29 05:46:45;;;;;;;33.30;29.70;;;3.40;99.90;;;;;;5035611;28;20087;-75
2023/01/29 05:49:12;;;;;;;31.33;28.13;;;3.40;99.90;;;;;;5038756;28;20024;-75
2023/01/29 05:51:37;;;;;;;32.35;28.63;;;3.40;99.90;;;;;;5037589;28;20124;-76
2023/01/29 05:54:04;;;;;;;33.58;30.05;;;3.40;99.90;;;;;;5035596;28;20120;-75
2023/01/29 05:56:30;;;;;;;33.65;30.10;;;3.40;99.90;;;;;;5047047;28;20036;-75
2023/01/29 05:58:55;;;;;;;31.73;28.42;;;3.40;99.90;;;;;;5052851;28;20051;-75
2023/01/29 06:01:23;;;;;;;32.13;28.73;;;3.40;99.90;;;;;;5038174;28;20048;-75
2023/01/29 06:03:49;;;;;;;32.33;29.00;;;3.40;99.90;;;;;;5037369;28;20090;-75
2023/01/29 06:06:15;;;;;;;33.38;29.77;;;3.40;99.90;;;;;;5046837;28;20044;-75
2023/01/29 06:08:41;;;;;;;33.50;29.65;;;3.40;99.90;;;;;;5055027;28;20397;-75
2023/01/29 06:11:09;;;;;;;33.75;30.20;;;3.40;99.90;;;;;;5050354;28;20037;-75
2023/01/29 06:13:35;;;;;;;32.60;29.10;;;3.40;99.90;;;;;;5037198;28;20044;-75
2023/01/29 06:16:06;;;;;;;32.83;29.42;;;3.40;99.90;;;;;;5031713;28;20490;-75
2023/01/29 06:18:32;;;;;;;32.90;29.35;;;3.40;99.90;;;;;;5046430;28;20528;-75
2023/01/29 06:21:06;;;;;;;34.22;30.50;;;3.30;99.90;;;;;;5051030;28;20060;-76
2023/01/29 06:23:32;;;;;;;32.58;29.02;;;3.40;99.90;;;;;;5037124;28;20106;-76
2023/01/29 06:26:06;;;;;;;34.40;30.60;;;3.40;99.90;;;;;;5037449;28;20433;-76
2023/01/29 06:28:32;;;;;;;34.55;30.77;;;3.40;99.90;;;;;;5038035;28;20036;-76
2023/01/29 06:31:00;;;;;;;33.55;29.95;;;3.30;99.90;;;;;;5034950;28;20051;-76
2023/01/29 06:33:26;;;;;;;34.38;30.77;;;3.40;99.90;;;;;;5035907;28;20109;-76
2023/01/29 06:36:00;;;;;;;34.83;31.27;;;3.40;99.90;;;;;;5051100;28;20036;-76
2023/01/29 06:38:26;;;;;;;37.72;32.58;;;3.40;99.90;;;;;;5054108;28;20066;-76
2023/01/29 06:40:52;;;;;;;33.80;30.23;;;3.40;99.90;;;;;;5051218;28;20047;-76
2023/01/29 06:43:18;;;;;;;34.58;31.08;;;3.30;99.90;;;;;;5036527;28;20032;-76
2023/01/29 06:45:54;;;;;;;32.90;29.60;;;3.40;99.90;;;;;;5048688;28;20033;-76
2023/01/29 06:48:21;;;;;;;34.47;31.00;;;3.40;99.90;;;;;;5053606;28;20037;-76
2023/01/29 06:50:48;;;;;;;34.60;31.10;;;3.30;99.90;;;;;;5045116;28;20040;-76
2023/01/29 06:53:15;;;;;;;33.33;29.80;;;3.30;99.90;;;;;;5043115;28;20242;-76
2023/01/29 06:55:41;;;;;;;35.47;31.63;;;3.40;99.90;;;;;;5040404;28;20040;-76
2023/01/29 06:58:11;;;;;;;35.00;31.27;;;3.40;99.90;;;;;;5054138;28;20055;-76
2023/01/29 07:00:37;;;;;;;33.70;30.10;;;3.40;99.90;;;;;;5034709;28;20037;-76
2023/01/29 07:03:03;;;;;;;35.92;32.08;;;3.40;99.90;;;;;;5028415;28;20036;-76
2023/01/29 07:05:30;;;;;;;35.55;31.75;;;3.40;99.90;;;;;;5033529;28;20494;-76
2023/01/29 07:07:56;;;;;;;36.55;31.48;;;3.40;99.90;;;;;;5038674;28;20398;-76
2023/01/29 07:10:22;;;;;;;34.28;30.40;;;3.50;99.90;;;;;;5030751;28;20032;-77
2023/01/29 07:12:48;;;;;;;35.97;31.92;;;3.40;99.90;;;;;;5029236;28;20147;-76
2023/01/29 07:15:20;;;;;;;34.60;31.00;;;3.30;99.90;;;;;;5046578;28;20082;-79
2023/01/29 07:18:10;;;;;;;35.85;32.00;;;3.40;99.90;;;;;;5061074;28;20046;-77
2023/01/29 07:21:06;;;;;;;;;;;;;;;;;;;;;
2023/01/29 07:23:42;;;;;;;35.88;31.95;;;3.40;99.90;;;;;;5049806;28;20049;-78
2023/01/29 07:26:14;;;;;;;36.22;32.33;;;3.40;99.90;;;;;;5002109;28;20041;-79
2023/01/29 07:28:51;;;;;;;36.60;32.58;;;3.50;99.90;;;;;;5051272;28;20526;-78
2023/01/29 07:31:20;;;;;;;35.63;31.77;;;3.40;99.90;;;;;;5036624;28;20033;-77
2023/01/29 07:36:40;;;;;;;33.88;30.27;;;3.50;99.90;;;;;;5046953;28;20082;-78
2023/01/29 07:39:06;;;;;;;36.03;31.42;;;3.50;99.90;;;;;;5049010;28;20121;-78
2023/01/29 07:41:34;;;;;;;36.17;32.17;;;3.50;99.90;;;;;;5046124;28;20044;-78
2023/01/29 07:44:00;;;;;;;36.75;31.23;;;3.50;99.90;;;;;;5044615;28;20617;-78
2023/01/29 07:46:26;;;;;;;35.90;31.25;;;3.50;99.90;;;;;;5036428;28;20045;-78
2023/01/29 07:48:52;;;;;;;38.80;31.05;;;3.50;99.90;;;;;;5036559;28;20045;-78
2023/01/29 07:51:20;;;;;;;35.92;31.83;;;3.50;99.90;;;;;;5040758;28;20094;-78
2023/01/29 07:53:46;;;;;;;35.83;30.05;;;3.40;99.90;;;;;;5043642;28;20063;-78
2023/01/29 07:56:15;;;;;;;35.60;30.92;;;3.50;99.90;;;;;;5043688;28;20148;-77
2023/01/29 07:58:41;;;;;;;34.25;30.35;;;3.50;99.90;;;;;;5043129;28;20383;-78
2023/01/29 08:01:07;;;;;;;35.22;31.30;;;3.40;99.90;;;;;;5043417;28;20051;-78
2023/01/29 08:03:34;;;;;;;34.65;30.75;;;3.40;99.90;;;;;;5043777;28;20498;-78
2023/01/29 08:06:01;;;;;;;35.22;30.60;;;3.40;99.90;;;;;;5050150;28;20040;-78
2023/01/29 08:08:27;;;;;;;34.05;30.35;;;3.50;99.90;;;;;;5049828;28;20033;-78
2023/01/29 08:10:54;;;;;;;34.80;30.58;;;3.50;99.90;;;;;;5047234;28;20421;-78
2023/01/29 08:13:19;;;;;;;34.85;30.88;;;3.40;99.90;;;;;;5051277;28;20044;-78
2023/01/29 08:15:45;;;;;;;34.55;30.83;;;3.50;99.90;;;;;;5044714;28;20041;-78
2023/01/29 08:18:12;;;;;;;32.60;29.05;;;3.50;99.90;;;;;;5042769;28;20301;-77
2023/01/29 08:20:41;;;;;;;35.47;31.27;;;3.50;99.90;;;;;;5043068;28;20041;-78
2023/01/29 08:23:13;;;;;;;34.33;30.63;;;3.50;99.90;;;;;;5040242;28;20032;-78
2023/01/29 08:25:42;;;;;;;34.25;30.55;;;3.60;99.90;;;;;;5049649;28;20490;-78
2023/01/29 08:28:08;;;;;;;33.78;29.95;;;3.50;99.90;;;;;;5049903;28;20068;-78
2023/01/29 08:30:36;;;;;;;32.95;29.30;;;3.60;99.90;;;;;;5044020;28;20029;-78
2023/01/29 08:33:03;;;;;;;34.40;30.65;;;3.60;99.90;;;;;;5063815;28;20448;-78
2023/01/29 08:35:29;;;;;;;33.17;29.05;;;3.60;99.90;;;;;;5046941;28;20090;-78
2023/01/29 08:38:00;;;;;;;33.78;30.13;;;3.60;99.90;;;;;;5040244;28;20047;-78
2023/01/29 08:40:28;;;;;;;33.88;30.17;;;3.60;99.90;;;;;;5044904;28;20044;-78
2023/01/29 08:42:58;;;;;;;32.72;29.25;;;3.60;99.90;;;;;;5046548;28;20528;-78
2023/01/29 08:45:26;;;;;;;34.03;30.10;;;3.70;99.90;;;;;;5048438;28;20040;-77
2023/01/29 08:48:20;;;;;;;34.50;30.75;;;3.70;99.90;;;;;;5038601;28;20060;-79
2023/01/29 08:51:24;;;;;;;;;;;;;;;;;;;;;
2023/01/29 08:55:01;;;;;;;32.75;28.83;;;3.70;99.90;;;;;;5064535;28;20133;-79
2023/01/29 08:57:58;;;;;;;34.63;29.38;;;3.80;99.90;;;;;;5062107;28;20064;-77
2023/01/29 09:00:27;;;;;;;32.53;29.00;;;3.80;99.90;;;;;;5042402;28;20032;-78
2023/01/29 09:02:58;;;;;;;34.25;30.55;;;3.90;99.90;;;;;;5068615;28;20828;-77
2023/01/29 09:05:27;;;;;;;32.47;29.08;;;3.90;99.90;;;;;;5038418;28;20057;-80
2023/01/29 09:07:56;;;;;;;33.20;29.70;;;3.90;99.90;;;;;;5036753;28;20490;-78
2023/01/29 09:10:22;;;;;;;32.72;29.23;;;3.90;99.90;;;;;;5041010;28;20048;-77
2023/01/29 09:12:48;;;;;;;32.47;29.02;;;4.00;99.90;;;;;;5052957;28;20053;-77
2023/01/29 09:15:14;;;;;;;33.33;29.42;;;3.90;99.90;;;;;;5036602;28;20128;-77
2023/01/29 09:17:40;;;;;;;34.67;30.35;;;4.00;99.90;;;;;;5038072;28;20121;-77
2023/01/29 09:20:06;;;;;;;33.13;29.58;;;4.00;99.90;;;;;;5039601;28;20170;-77
2023/01/29 09:22:32;;;;;;;34.00;30.27;;;4.00;99.90;;;;;;5049959;28;20066;-77
2023/01/29 09:24:58;;;;;;;32.35;28.85;;;4.00;99.90;;;;;;5037452;28;20036;-78
2023/01/29 09:27:24;;;;;;;33.22;29.73;;;4.10;99.90;;;;;;5037678;28;20408;-77
2023/01/29 09:29:49;;;;;;;33.13;29.10;;;4.20;99.90;;;;;;5043340;28;20101;-77
2023/01/29 09:32:15;;;;;;;32.67;29.15;;;4.30;99.90;;;;;;5046491;28;20040;-78
2023/01/29 09:34:41;;;;;;;32.13;28.63;;;4.40;99.90;;;;;;5040350;28;20043;-77
2023/01/29 09:37:07;;;;;;;32.92;29.50;;;4.50;99.90;;;;;;5038732;28;20086;-77
2023/01/29 09:39:33;;;;;;;30.98;27.67;;;4.50;99.90;;;;;;5042559;28;20082;-78
2023/01/29 09:42:23;;;;;;;33.72;29.30;;;4.50;99.90;;;;;;5037581;28;20114;-77
2023/01/29 09:45:08;;;;;;;31.90;28.58;;;4.50;99.90;;;;;;5036651;28;20127;-78
2023/01/29 09:47:36;;;;;;;31.23;27.92;;;4.50;99.90;;;;;;5043587;28;20503;-78
2023/01/29 09:50:13;;;;;;;32.05;28.58;;;4.60;99.90;;;;;;5036782;28;20042;-78
2023/01/29 09:52:51;;;;;;;31.73;28.15;;;4.60;99.90;;;;;;5038952;28;20047;-78
2023/01/29 09:55:25;;;;;;;31.63;28.42;;;4.70;99.90;;;;;;5036053;28;20528;-77
2023/01/29 09:57:59;;;;;;;30.58;27.42;;;4.70;99.90;;;;;;5038019;28;20141;-78
2023/01/29 10:00:47;;;;;;;30.15;27.02;;;4.70;99.90;;;;;;5051397;28;20141;-77
2023/01/29 10:03:18;;;;;;;30.83;27.55;;;4.70;99.90;;;;;;5038631;28;20093;-77
2023/01/29 10:05:56;;;;;;;31.42;28.13;;;4.80;99.90;;;;;;5038845;28;20047;-77
2023/01/29 10:08:44;;;;;;;30.02;26.90;;;4.80;99.90;;;;;;5035320;28;20071;-77
2023/01/29 10:11:20;;;;;;;29.77;26.58;;;4.80;99.90;;;;;;5031463;28;20044;-77
2023/01/29 10:14:18;;;;;;;31.00;27.42;;;4.80;99.90;;;;;;5036208;28;20552;-77
2023/01/29 10:16:59;;;;;;;31.88;28.45;;;4.80;99.90;;;;;;5030883;28;20530;-74
2023/01/29 10:19:52;;;;;;;31.25;27.95;;;4.80;99.90;;;;;;5038981;28;20123;-75
2023/01/29 10:22:54;;;;;;;31.42;28.02;;;4.80;99.90;;;;;;5030628;28;20058;-74
2023/01/29 10:25:22;;;;;;;30.90;27.50;;;4.90;99.90;;;;;;5038672;28;20044;-75
2023/01/29 10:27:54;;;;;;;31.98;27.83;;;4.80;99.90;;;;;;5025056;28;20091;-74
2023/01/29 10:30:35;;;;;;;31.10;27.80;;;4.90;99.90;;;;;;5030840;28;20040;-74
2023/01/29 10:33:04;;;;;;;30.25;27.05;;;5.00;99.90;;;;;;5037732;28;20068;-74
2023/01/29 10:35:33;;;;;;;31.73;28.55;;;5.00;99.90;;;;;;5038512;28;20310;-74
2023/01/29 10:38:28;;;;;;;34.35;29.02;;;5.00;99.90;;;;;;5038129;28;20128;-74
2023/01/29 10:41:03;;;;;;;31.15;28.05;;;5.00;99.90;;;;;;5027917;28;20105;-74
2023/01/29 10:43:36;;;;;;;30.48;27.27;;;4.90;99.90;;;;;;5056635;28;20105;-77
2023/01/29 10:46:33;;;;;;;31.75;28.25;;;4.90;99.90;;;;;;5050785;28;20076;-74
2023/01/29 10:49:39;;;;;;;31.23;27.98;;;4.90;99.90;;;;;;5054629;28;20080;-74
2023/01/29 10:52:10;;;;;;;29.48;26.35;;;4.90;99.90;;;;;;5036837;28;20040;-76
2023/01/29 10:55:00;;;;;;;30.90;27.73;;;4.90;99.90;;;;;;5038064;28;20086;-75
2023/01/29 10:57:57;;;;;;;30.80;27.48;;;4.90;99.90;;;;;;5037629;28;20045;-75
2023/01/29 11:00:32;;;;;;;30.88;27.67;;;4.90;99.90;;;;;;5037719;28;20049;-75
2023/01/29 11:03:17;;;;;;;31.15;27.83;;;4.90;99.90;;;;;;5045929;28;20047;-74
2023/01/29 11:06:14;;;;;;;29.60;26.55;;;5.00;99.90;;;;;;5054460;28;20037;-74
2023/01/29 11:08:41;;;;;;;30.42;27.15;;;5.00;99.90;;;;;;5039647;28;20056;-76
2023/01/29 11:11:21;;;;;;;31.80;28.42;;;5.00;99.90;;;;;;5046581;28;20097;-74
2023/01/29 11:14:10;;;;;;;33.40;28.60;;;5.10;99.90;;;;;;5045749;28;20036;-74
2023/01/29 11:16:46;;;;;;;31.77;28.52;;;5.10;99.90;;;;;;5038937;28;20473;-76
2023/01/29 11:19:12;;;;;;;33.90;28.60;;;5.20;99.90;;;;;;5061533;28;20101;-77
2023/01/29 11:21:59;;;;;;;30.63;27.33;;;5.30;99.90;;;;;;5065032;28;20044;-74
2023/01/29 11:24:26;;;;;;;30.60;27.38;;;5.40;99.90;;;;;;5036312;28;20162;-76
2023/01/29 11:26:56;;;;;;;30.50;27.20;;;5.40;99.90;;;;;;5033907;28;20037;-76
2023/01/29 11:29:41;;;;;;;30.65;27.42;;;5.40;99.90;;;;;;5039031;28;20352;-77
2023/01/29 11:32:33;;;;;;;31.35;27.70;;;5.40;99.90;;;;;;5035788;28;20373;-74
2023/01/29 11:35:05;;;;;;;31.23;27.77;;;5.30;99.90;;;;;;5034855;28;20592;-74
2023/01/29 11:37:36;;;;;;;31.73;28.23;;;5.40;99.90;;;;;;5034859;28;20495;-74
2023/01/29 11:40:28;;;;;;;30.95;27.70;;;5.50;99.90;;;;;;5036176;28;20054;-75
2023/01/29 11:42:54;;;;;;;30.30;27.08;;;5.60;99.90;;;;;;5023960;28;20040;-74
2023/01/29 11:45:31;;;;;;;29.63;26.48;;;5.60;99.90;;;;;;5048555;28;20521;-74
2023/01/29 11:47:57;;;;;;;33.17;27.52;;;5.60;99.90;;;;;;5036105;28;20040;-76
2023/01/29 11:50:33;;;;;;;29.67;26.55;;;5.60;99.90;;;;;;5037388;28;20106;-74
2023/01/29 11:53:00;;;;;;;31.25;27.30;;;5.60;99.90;;;;;;5037333;28;20036;-76
2023/01/29 11:55:29;;;;;;;29.80;26.60;;;5.50;99.90;;;;;;5046080;28;20036;-74
2023/01/29 11:58:05;;;;;;;28.92;25.08;;;5.50;99.90;;;;;;5039824;28;20040;-75
2023/01/29 12:00:33;;;;;;;28.90;25.77;;;5.40;99.90;;;;;;5041573;28;20127;-76
2023/01/29 12:03:58;;;;;;;28.67;25.67;;;5.30;99.90;;;;;;5036372;28;20485;-74
2023/01/29 12:06:35;;;;;;;29.58;26.38;;;5.20;99.90;;;;;;4950518;28;20468;-74
2023/01/29 12:09:08;;;;;;;30.05;26.38;;;5.10;99.90;;;;;;5026092;28;20040;-76
2023/01/29 12:11:34;;;;;;;31.33;26.05;;;5.10;99.90;;;;;;5035388;28;20085;-74
2023/01/29 12:14:02;;;;;;;30.38;27.20;;;5.00;99.90;;;;;;5032303;28;20124;-74
2023/01/29 12:17:00;;;;;;;29.33;26.00;;;4.90;99.90;;;;;;5045032;28;20114;-74
2023/01/29 12:19:28;;;;;;;32.28;28.75;;;4.90;99.90;;;;;;5053670;28;20037;-74
2023/01/29 12:22:12;;;;;;;31.35;27.42;;;4.90;99.90;;;;;;5042435;28;20106;-74
2023/01/29 12:24:45;;;;;;;32.30;28.85;;;4.90;99.90;;;;;;5053776;28;20037;-74
2023/01/29 12:27:25;;;;;;;30.15;26.95;;;4.90;99.90;;;;;;5052944;28;20037;-74
2023/01/29 12:30:06;;;;;;;31.80;28.33;;;4.90;99.90;;;;;;5033736;28;20494;-74
2023/01/29 12:33:01;;;;;;;32.38;27.98;;;4.90;99.90;;;;;;5047324;28;20045;-78
2023/01/29 12:35:46;;;;;;;32.60;28.80;;;4.90;99.90;;;;;;5001846;28;20047;-76
2023/01/29 12:38:31;;;;;;;34.78;28.63;;;5.00;99.90;;;;;;5036588;28;20040;-77
2023/01/29 12:41:24;;;;;;;30.92;27.60;;;5.00;99.90;;;;;;5052036;28;20052;-78
2023/01/29 12:44:30;;;;;;;30.58;27.38;;;5.10;99.90;;;;;;5036381;28;20503;-77
2023/01/29 12:47:05;;;;;;;28.98;25.88;;;5.10;99.90;;;;;;4961879;28;20096;-77
2023/01/29 12:53:03;;;;;;;30.80;27.45;;;5.00;99.90;;;;;;5039359;28;20040;-78
2023/01/29 12:56:27;;;;;;;31.80;27.98;;;4.90;99.90;;;;;;5039606;28;20033;-77
2023/01/29 12:58:59;;;;;;;;;;;4.90;99.90;;;;;;5045288;28;20098;-78
2023/01/29 13:02:20;;;;;;;32.42;28.95;;;4.80;99.90;;;;;;5039686;28;19955;-78
2023/01/29 13:05:15;;;;;;;32.78;29.13;;;4.80;99.90;;;;;;5020175;28;20052;-77
2023/01/29 13:07:55;;;;;;;32.13;28.58;;;4.80;99.90;;;;;;5036316;28;20037;-77
2023/01/29 13:10:37;;;;;;;31.55;28.23;;;4.70;99.90;;;;;;5000322;28;20526;-77
2023/01/29 13:13:27;;;;;;;37.38;29.95;;;4.80;99.90;;;;;;4999278;28;20084;-78
2023/01/29 13:16:22;;;;;;;33.35;29.23;;;4.80;99.90;;;;;;5005201;28;20128;-78
2023/01/29 13:19:34;;;;;;;34.67;30.88;;;4.70;99.90;;;;;;5026759;28;20043;-77
2023/01/29 13:26:06;;;;;;;35.15;31.33;;;4.70;99.90;;;;;;5005092;28;20527;-78
2023/01/29 13:28:35;;;;;;;35.13;31.13;;;4.60;99.90;;;;;;5027790;28;20048;-77
2023/01/29 13:31:25;;;;;;;36.33;32.33;;;4.70;99.90;;;;;;5035941;28;20515;-78
2023/01/29 13:34:30;;;;;;;34.45;30.33;;;4.70;99.90;;;;;;5036109;28;20128;-78
2023/01/29 13:37:13;;;;;;;33.97;30.38;;;4.60;99.90;;;;;;5024338;28;20530;-78
2023/01/29 13:40:03;;;;;;;36.85;31.35;;;4.70;99.90;;;;;;5024135;28;20045;-78
2023/01/29 13:42:59;;;;;;;37.17;32.75;;;4.80;99.90;;;;;;5035943;28;20073;-78
2023/01/29 13:45:45;;;;;;;35.83;31.58;;;4.80;99.90;;;;;;5035181;28;20048;-78
2023/01/29 13:48:27;;;;;;;34.80;30.85;;;4.90;99.90;;;;;;5043194;28;20072;-77
2023/01/29 13:50:59;;;;;;;32.95;29.45;;;4.90;99.90;;;;;;5019356;28;20056;-78
2023/01/29 13:54:06;;;;;;;33.85;29.27;;;4.90;99.90;;;;;;5025335;28;20190;-77
2023/01/29 13:56:40;;;;;;;34.47;30.85;;;4.90;99.90;;;;;;5011794;28;20065;-78
2023/01/29 13:59:56;;;;;;;34.50;30.55;;;4.90;99.90;;;;;;5026582;28;20047;-78